createdAt,value
2023-06-19T00:00:41.048Z,33.62
2023-06-19T00:01:43.136Z,33.60
2023-06-19T00:02:45.499Z,33.57
2023-06-19T00:03:47.720Z,33.55
2023-06-19T00:04:49.659Z,33.55
2023-06-19T00:05:51.722Z,33.53
2023-06-19T00:06:54.913Z,33.49
2023-06-19T00:07:56.817Z,33.49
2023-06-19T00:08:58.959Z,33.47
2023-06-19T00:10:00.892Z,33.44
2023-06-19T00:11:03.155Z,33.42
2023-06-19T00:12:05.982Z,33.40
2023-06-19T00:13:08.283Z,33.39
2023-06-19T00:14:10.569Z,33.36
2023-06-19T00:15:13.524Z,33.35
2023-06-19T00:16:15.745Z,33.33
2023-06-19T00:17:18.062Z,33.30
2023-06-19T00:18:21.064Z,33.30
2023-06-19T00:19:23.774Z,33.28
2023-06-19T00:20:26.235Z,33.27
2023-06-19T00:21:28.649Z,33.26
2023-06-19T00:22:30.565Z,33.24
2023-06-19T00:23:32.758Z,33.22
2023-06-19T00:24:34.830Z,33.21
2023-06-19T00:25:36.893Z,33.19
2023-06-19T00:26:38.780Z,33.18
2023-06-19T00:27:40.721Z,33.16
2023-06-19T00:28:44.696Z,33.16
2023-06-19T00:29:46.621Z,33.14
2023-06-19T00:30:48.566Z,33.13
2023-06-19T00:31:50.452Z,33.12
2023-06-19T00:32:54.378Z,33.10
2023-06-19T00:33:56.566Z,33.07
2023-06-19T00:34:58.568Z,33.08
2023-06-19T00:36:02.181Z,33.07
2023-06-19T00:37:04.973Z,33.05
2023-06-19T00:38:07.036Z,33.05
2023-06-19T00:39:09.564Z,33.04
2023-06-19T00:40:27.923Z,33.08
2023-06-19T00:41:31.940Z,33.02
2023-06-19T00:42:34.112Z,33.00
2023-06-19T00:43:36.127Z,32.98
2023-06-19T00:44:38.029Z,32.97
2023-06-19T00:45:40.200Z,32.95
2023-06-19T00:46:42.682Z,32.91
2023-06-19T00:47:44.904Z,32.91
2023-06-19T00:48:46.883Z,32.89
2023-06-19T00:49:49.054Z,32.88
2023-06-19T00:50:51.923Z,32.86
2023-06-19T00:51:54.484Z,32.86
2023-06-19T00:52:56.835Z,32.84
2023-06-19T00:53:58.860Z,32.82
2023-06-19T00:55:00.994Z,32.81
2023-06-19T00:56:04.774Z,32.79
2023-06-19T00:57:07.075Z,32.79
2023-06-19T00:58:09.086Z,32.77
2023-06-19T00:59:19.257Z,32.80
2023-06-19T01:00:21.708Z,32.76
2023-06-19T01:01:27.368Z,32.74
2023-06-19T01:02:29.545Z,32.73
2023-06-19T01:03:31.638Z,32.71
2023-06-19T01:04:33.737Z,32.70
2023-06-19T01:05:36.011Z,32.69
2023-06-19T01:06:59.697Z,32.77
2023-06-19T01:08:31.093Z,32.76
2023-06-19T01:09:45.248Z,32.72
2023-06-19T01:10:55.589Z,32.65
2023-06-19T01:12:12.705Z,32.67
2023-06-19T01:13:27.012Z,32.63
2023-06-19T01:14:46.183Z,32.63
2023-06-19T01:15:49.282Z,32.56
2023-06-19T01:16:52.145Z,32.51
2023-06-19T01:17:58.955Z,32.50
2023-06-19T01:19:02.338Z,32.44
2023-06-19T01:20:11.757Z,32.42
2023-06-19T01:21:17.102Z,32.39
2023-06-19T01:22:32.513Z,32.45
2023-06-19T01:23:34.579Z,32.37
2023-06-19T01:24:36.686Z,32.33
2023-06-19T01:25:39.068Z,32.30
2023-06-19T01:26:42.312Z,32.27
2023-06-19T01:27:44.654Z,32.27
2023-06-19T01:28:47.883Z,32.24
2023-06-19T01:29:50.686Z,32.25
2023-06-19T01:30:56.562Z,32.24
2023-06-19T01:32:14.880Z,32.30
2023-06-19T01:33:27.424Z,32.29
2023-06-19T01:34:31.925Z,32.25
2023-06-19T01:35:40.514Z,32.25
2023-06-19T01:36:43.292Z,32.21
2023-06-19T01:37:47.862Z,32.21
2023-06-19T01:38:52.393Z,32.19
2023-06-19T01:39:58.499Z,32.21
2023-06-19T01:41:02.100Z,32.20
2023-06-19T01:42:05.954Z,32.19
2023-06-19T01:43:09.858Z,32.18
2023-06-19T01:44:12.234Z,32.17
2023-06-19T01:45:14.448Z,32.15
2023-06-19T01:46:16.664Z,32.14
2023-06-19T01:47:21.132Z,32.14
2023-06-19T01:48:23.234Z,32.14
2023-06-19T01:49:25.493Z,32.14
2023-06-19T01:50:27.539Z,32.13
2023-06-19T01:51:29.498Z,32.12
2023-06-19T01:52:31.550Z,32.11
2023-06-19T01:53:33.864Z,32.12
2023-06-19T01:54:35.856Z,32.11
2023-06-19T01:55:38.744Z,32.10
2023-06-19T01:56:41.010Z,32.09
2023-06-19T01:57:43.184Z,32.09
2023-06-19T01:58:45.437Z,32.06
2023-06-19T01:59:47.350Z,32.06
2023-06-19T02:00:49.372Z,32.05
2023-06-19T02:01:51.293Z,32.05
2023-06-19T02:02:53.274Z,32.05
2023-06-19T02:03:55.317Z,32.05
2023-06-19T02:04:57.190Z,32.04
2023-06-19T02:05:59.690Z,32.01
2023-06-19T02:07:01.738Z,32.01
2023-06-19T02:08:04.132Z,31.99
2023-06-19T02:09:06.600Z,32.00
2023-06-19T02:10:09.511Z,31.98
2023-06-19T02:11:11.497Z,31.98
2023-06-19T02:12:13.444Z,31.98
2023-06-19T02:13:15.377Z,31.96
2023-06-19T02:14:17.377Z,31.97
2023-06-19T02:15:19.327Z,31.97
2023-06-19T02:16:21.489Z,31.97
2023-06-19T02:17:23.485Z,31.96
2023-06-19T02:18:26.129Z,31.95
2023-06-19T02:19:28.094Z,31.95
2023-06-19T02:20:30.006Z,31.93
2023-06-19T02:21:32.323Z,31.94
2023-06-19T02:22:34.214Z,31.93
2023-06-19T02:23:36.083Z,31.90
2023-06-19T02:24:40.656Z,31.89
2023-06-19T02:25:42.595Z,31.88
2023-06-19T02:26:45.169Z,31.87
2023-06-19T02:27:47.155Z,31.86
2023-06-19T02:28:49.050Z,31.86
2023-06-19T02:29:51.325Z,31.86
2023-06-19T02:30:55.265Z,31.85
2023-06-19T02:31:57.606Z,31.85
2023-06-19T02:32:59.588Z,31.84
2023-06-19T02:34:02.102Z,31.83
2023-06-19T02:35:09.847Z,31.82
2023-06-19T02:36:12.065Z,31.82
2023-06-19T02:37:14.133Z,31.81
2023-06-19T02:38:16.189Z,31.80
2023-06-19T02:39:19.276Z,31.80
2023-06-19T02:40:21.337Z,31.81
2023-06-19T02:41:23.304Z,31.80
2023-06-19T02:42:25.339Z,31.79
2023-06-19T02:43:27.358Z,31.79
2023-06-19T02:44:29.314Z,31.79
2023-06-19T02:45:31.281Z,31.78
2023-06-19T02:46:33.603Z,31.79
2023-06-19T02:47:35.879Z,31.79
2023-06-19T02:48:38.121Z,31.78
2023-06-19T02:49:40.149Z,31.77
2023-06-19T02:50:42.131Z,31.77
2023-06-19T02:51:44.112Z,31.77
2023-06-19T02:52:45.968Z,31.76
2023-06-19T02:53:48.667Z,31.77
2023-06-19T02:54:50.582Z,31.76
2023-06-19T02:55:52.471Z,31.77
2023-06-19T02:56:54.320Z,31.77
2023-06-19T02:57:56.320Z,31.76
2023-06-19T02:58:58.503Z,31.77
2023-06-19T03:00:00.443Z,31.77
2023-06-19T03:01:02.694Z,31.78
2023-06-19T03:02:05.299Z,31.77
2023-06-19T03:03:07.484Z,31.77
2023-06-19T03:04:09.465Z,31.76
2023-06-19T03:05:15.765Z,31.79
2023-06-19T03:06:19.044Z,31.79
2023-06-19T03:07:20.907Z,31.78
2023-06-19T03:08:22.774Z,31.77
2023-06-19T03:09:24.907Z,31.77
2023-06-19T03:10:27.122Z,31.77
2023-06-19T03:11:29.299Z,31.77
2023-06-19T03:12:31.300Z,31.76
2023-06-19T03:13:53.676Z,31.89
2023-06-19T03:14:55.933Z,31.83
2023-06-19T03:15:57.860Z,31.79
2023-06-19T03:17:00.278Z,31.78
2023-06-19T03:18:05.628Z,31.77
2023-06-19T03:19:07.696Z,31.78
2023-06-19T03:20:13.053Z,31.77
2023-06-19T03:21:16.051Z,31.77
2023-06-19T03:22:19.053Z,31.77
2023-06-19T03:23:21.036Z,31.76
2023-06-19T03:24:23.022Z,31.76
2023-06-19T03:25:24.992Z,31.75
2023-06-19T03:26:27.441Z,31.75
2023-06-19T03:27:30.673Z,31.73
2023-06-19T03:28:32.757Z,31.74
2023-06-19T03:29:34.655Z,31.73
2023-06-19T03:30:36.601Z,31.72
2023-06-19T03:31:40.645Z,31.72
2023-06-19T03:32:42.623Z,31.73
2023-06-19T03:33:44.617Z,31.71
2023-06-19T03:34:47.187Z,31.72
2023-06-19T03:35:49.329Z,31.72
2023-06-19T03:36:51.229Z,31.72
2023-06-19T03:37:53.174Z,31.71
2023-06-19T03:38:56.626Z,31.70
2023-06-19T03:39:58.640Z,31.71
2023-06-19T03:41:00.692Z,31.71
2023-06-19T03:42:03.003Z,31.70
2023-06-19T03:43:05.089Z,31.69
2023-06-19T03:44:07.074Z,31.67
2023-06-19T03:45:09.550Z,31.67
2023-06-19T03:46:11.382Z,31.66
2023-06-19T03:47:13.501Z,31.67
2023-06-19T03:48:17.040Z,31.66
2023-06-19T03:49:18.997Z,31.66
2023-06-19T03:50:22.780Z,31.65
2023-06-19T03:51:26.259Z,31.66
2023-06-19T03:52:28.618Z,31.65
2023-06-19T03:53:30.590Z,31.65
2023-06-19T03:54:32.520Z,31.65
2023-06-19T03:55:34.843Z,31.65
2023-06-19T03:56:36.785Z,31.64
2023-06-19T03:57:39.019Z,31.65
2023-06-19T03:58:41.047Z,31.63
2023-06-19T03:59:43.011Z,31.64
2023-06-19T04:00:45.244Z,31.62
2023-06-19T04:01:47.249Z,31.60
2023-06-19T04:02:49.649Z,31.59
2023-06-19T04:03:51.619Z,31.59
2023-06-19T04:04:53.521Z,31.59
2023-06-19T04:05:55.531Z,31.59
2023-06-19T04:06:58.418Z,31.58
2023-06-19T04:08:00.324Z,31.57
2023-06-19T04:09:02.355Z,31.56
2023-06-19T04:10:04.816Z,31.57
2023-06-19T04:11:07.118Z,31.57
2023-06-19T04:12:09.837Z,31.56
2023-06-19T04:13:12.933Z,31.57
2023-06-19T04:14:14.846Z,31.56
2023-06-19T04:15:16.702Z,31.55
2023-06-19T04:16:18.699Z,31.56
2023-06-19T04:17:20.947Z,31.56
2023-06-19T04:18:22.995Z,31.55
2023-06-19T04:19:24.871Z,31.56
2023-06-19T04:20:27.282Z,31.55
2023-06-19T04:21:29.515Z,31.56
2023-06-19T04:22:31.371Z,31.53
2023-06-19T04:23:33.412Z,31.53
2023-06-19T04:24:36.553Z,31.53
2023-06-19T04:25:38.836Z,31.52
2023-06-19T04:26:40.795Z,31.53
2023-06-19T04:27:42.726Z,31.53
2023-06-19T04:28:44.662Z,31.52
2023-06-19T04:29:46.559Z,31.52
2023-06-19T04:30:48.468Z,31.51
2023-06-19T04:31:51.008Z,31.51
2023-06-19T04:32:54.409Z,31.51
2023-06-19T04:33:57.390Z,31.51
2023-06-19T04:34:59.987Z,31.52
2023-06-19T04:36:02.262Z,31.51
2023-06-19T04:37:04.421Z,31.51
2023-06-19T04:38:10.179Z,31.51
2023-06-19T04:39:12.119Z,31.53
2023-06-19T04:40:14.000Z,31.52
2023-06-19T04:41:15.902Z,31.52
2023-06-19T04:42:20.604Z,31.50
2023-06-19T04:43:22.566Z,31.51
2023-06-19T04:44:24.521Z,31.51
2023-06-19T04:45:26.422Z,31.50
2023-06-19T04:46:28.345Z,31.51
2023-06-19T04:47:39.827Z,31.51
2023-06-19T04:48:51.905Z,31.53
2023-06-19T04:49:53.805Z,31.53
2023-06-19T04:50:57.293Z,31.52
2023-06-19T04:51:59.729Z,31.51
2023-06-19T04:53:01.876Z,31.52
2023-06-19T04:54:04.393Z,31.50
2023-06-19T04:55:10.599Z,31.50
2023-06-19T04:56:12.569Z,31.50
2023-06-19T04:57:14.576Z,31.49
2023-06-19T04:58:16.526Z,31.50
2023-06-19T04:59:19.329Z,31.50
2023-06-19T05:00:24.724Z,31.49
2023-06-19T05:01:31.455Z,31.48
2023-06-19T05:02:34.785Z,31.49
2023-06-19T05:03:36.757Z,31.49
2023-06-19T05:04:38.957Z,31.49
2023-06-19T05:05:40.849Z,31.47
2023-06-19T05:06:43.850Z,31.48
2023-06-19T05:07:46.643Z,31.48
2023-06-19T05:08:48.760Z,31.49
2023-06-19T05:09:50.890Z,31.49
2023-06-19T05:10:52.838Z,31.50
2023-06-19T05:11:55.114Z,31.50
2023-06-19T05:12:56.994Z,31.50
2023-06-19T05:13:59.179Z,31.49
2023-06-19T05:15:01.149Z,31.48
2023-06-19T05:16:03.267Z,31.49
2023-06-19T05:17:05.682Z,31.47
2023-06-19T05:18:07.900Z,31.48
2023-06-19T05:19:09.905Z,31.48
2023-06-19T05:20:12.944Z,31.48
2023-06-19T05:21:14.936Z,31.49
2023-06-19T05:22:19.254Z,31.48
2023-06-19T05:23:21.198Z,31.48
2023-06-19T05:24:23.173Z,31.47
2023-06-19T05:25:25.353Z,31.47
2023-06-19T05:26:27.690Z,31.46
2023-06-19T05:27:29.578Z,31.47
2023-06-19T05:28:31.797Z,31.45
2023-06-19T05:29:34.005Z,31.44
2023-06-19T05:30:36.230Z,31.44
2023-06-19T05:31:38.266Z,31.44
2023-06-19T05:32:40.441Z,31.45
2023-06-19T05:33:43.009Z,31.43
2023-06-19T05:34:44.849Z,31.43
2023-06-19T05:35:52.438Z,31.43
2023-06-19T05:36:54.573Z,31.44
2023-06-19T05:37:56.624Z,31.43
2023-06-19T05:38:58.580Z,31.41
2023-06-19T05:40:00.639Z,31.42
2023-06-19T05:41:04.345Z,31.42
2023-06-19T05:42:07.194Z,31.41
2023-06-19T05:43:09.101Z,31.43
2023-06-19T05:44:11.089Z,31.42
2023-06-19T05:45:13.070Z,31.42
2023-06-19T05:46:15.086Z,31.41
2023-06-19T05:47:19.129Z,31.40
2023-06-19T05:48:21.359Z,31.40
2023-06-19T05:49:23.373Z,31.40
2023-06-19T05:50:25.848Z,31.37
2023-06-19T05:51:28.081Z,31.38
2023-06-19T05:52:30.028Z,31.39
2023-06-19T05:53:32.897Z,31.37
2023-06-19T05:54:34.825Z,31.38
2023-06-19T05:55:36.841Z,31.38
2023-06-19T05:56:38.824Z,31.39
2023-06-19T05:57:40.779Z,31.37
2023-06-19T05:58:42.925Z,31.38
2023-06-19T05:59:44.799Z,31.39
2023-06-19T06:00:47.999Z,31.37
2023-06-19T06:01:51.664Z,31.38
2023-06-19T06:02:54.388Z,31.39
2023-06-19T06:03:57.960Z,31.38
2023-06-19T06:05:00.353Z,31.39
2023-06-19T06:06:04.309Z,31.38
2023-06-19T06:07:07.221Z,31.38
2023-06-19T06:08:09.056Z,31.37
2023-06-19T06:09:13.209Z,31.36
2023-06-19T06:10:15.282Z,31.36
2023-06-19T06:11:17.262Z,31.34
2023-06-19T06:12:19.129Z,31.33
2023-06-19T06:13:21.036Z,31.33
2023-06-19T06:14:23.029Z,31.33
2023-06-19T06:15:24.940Z,31.31
2023-06-19T06:16:27.101Z,31.29
2023-06-19T06:17:29.148Z,31.29
2023-06-19T06:18:31.412Z,31.29
2023-06-19T06:19:33.433Z,31.28
2023-06-19T06:20:35.348Z,31.29
2023-06-19T06:21:37.563Z,31.28
2023-06-19T06:22:43.864Z,31.32
2023-06-19T06:23:46.150Z,31.30
2023-06-19T06:24:48.430Z,31.29
2023-06-19T06:25:50.563Z,31.29
2023-06-19T06:26:52.945Z,31.28
2023-06-19T06:27:55.012Z,31.29
2023-06-19T06:28:56.992Z,31.29
2023-06-19T06:29:58.929Z,31.28
2023-06-19T06:31:00.822Z,31.28
2023-06-19T06:32:08.639Z,31.30
2023-06-19T06:33:11.004Z,31.28
2023-06-19T06:34:13.820Z,31.28
2023-06-19T06:35:16.517Z,31.31
2023-06-19T06:36:29.481Z,31.29
2023-06-19T06:37:37.850Z,31.36
2023-06-19T06:38:39.886Z,31.34
2023-06-19T06:39:41.927Z,31.34
2023-06-19T06:40:44.318Z,31.36
2023-06-19T06:41:46.480Z,31.38
2023-06-19T06:42:48.718Z,31.38
2023-06-19T06:43:50.594Z,31.39
2023-06-19T06:44:52.557Z,31.39
2023-06-19T06:45:54.933Z,31.42
2023-06-19T06:46:57.080Z,31.43
2023-06-19T06:47:58.974Z,31.45
2023-06-19T06:49:01.063Z,31.48
2023-06-19T06:50:03.158Z,31.49
2023-06-19T06:51:05.175Z,31.50
2023-06-19T06:52:08.512Z,31.51
2023-06-19T06:53:10.619Z,31.52
2023-06-19T06:54:12.772Z,31.53
2023-06-19T06:55:14.955Z,31.55
2023-06-19T06:56:16.964Z,31.57
2023-06-19T06:57:19.148Z,31.58
2023-06-19T06:58:21.204Z,31.60
2023-06-19T06:59:24.077Z,31.62
2023-06-19T07:00:26.414Z,31.63
2023-06-19T07:01:28.523Z,31.65
2023-06-19T07:02:30.684Z,31.65
2023-06-19T07:03:33.694Z,31.69
2023-06-19T07:04:35.820Z,31.69
2023-06-19T07:05:38.053Z,31.71
2023-06-19T07:06:40.144Z,31.72
2023-06-19T07:07:42.066Z,31.75
2023-06-19T07:08:44.085Z,31.76
2023-06-19T07:09:46.425Z,31.77
2023-06-19T07:10:48.626Z,31.78
2023-06-19T07:11:53.368Z,31.81
2023-06-19T07:12:55.939Z,31.83
2023-06-19T07:13:57.852Z,31.84
2023-06-19T07:14:59.738Z,31.84
2023-06-19T07:16:02.673Z,31.86
2023-06-19T07:17:08.297Z,31.88
2023-06-19T07:18:10.448Z,31.90
2023-06-19T07:19:13.381Z,31.91
2023-06-19T07:20:15.970Z,31.92
2023-06-19T07:21:18.214Z,31.93
2023-06-19T07:22:20.242Z,31.95
2023-06-19T07:23:22.836Z,31.94
2023-06-19T07:24:25.103Z,31.98
2023-06-19T07:25:28.120Z,31.98
2023-06-19T07:26:30.312Z,31.99
2023-06-19T07:27:32.784Z,32.01
2023-06-19T07:28:37.169Z,32.04
2023-06-19T07:29:39.116Z,32.05
2023-06-19T07:30:41.631Z,32.06
2023-06-19T07:31:44.092Z,32.06
2023-06-19T07:32:46.460Z,32.09
2023-06-19T07:33:48.370Z,32.11
2023-06-19T07:34:50.328Z,32.11
2023-06-19T07:35:52.208Z,32.13
2023-06-19T07:36:54.062Z,32.13
2023-06-19T07:37:55.910Z,32.15
2023-06-19T07:38:57.841Z,32.16
2023-06-19T07:39:59.966Z,32.17
2023-06-19T07:41:01.861Z,32.18
2023-06-19T07:42:04.125Z,32.20
2023-06-19T07:43:06.321Z,32.19
2023-06-19T07:44:08.313Z,32.22
2023-06-19T07:45:11.328Z,32.22
2023-06-19T07:46:13.363Z,32.24
2023-06-19T07:47:19.347Z,32.27
2023-06-19T07:48:21.213Z,32.27
2023-06-19T07:49:23.129Z,32.28
2023-06-19T07:50:27.471Z,32.28
2023-06-19T07:51:29.860Z,32.33
2023-06-19T07:52:32.737Z,32.34
2023-06-19T07:53:34.656Z,32.33
2023-06-19T07:54:36.915Z,32.34
2023-06-19T07:55:38.884Z,32.37
2023-06-19T07:56:42.602Z,32.36
2023-06-19T07:57:44.575Z,32.38
2023-06-19T07:58:46.864Z,32.38
2023-06-19T07:59:50.672Z,32.39
2023-06-19T08:00:52.586Z,32.38
2023-06-19T08:01:54.542Z,32.38
2023-06-19T08:02:57.297Z,32.35
2023-06-19T08:03:59.347Z,32.30
2023-06-19T08:05:01.337Z,32.21
2023-06-19T08:06:03.273Z,32.15
2023-06-19T08:07:05.675Z,32.07
2023-06-19T08:08:07.733Z,31.99
2023-06-19T08:09:09.663Z,31.91
2023-06-19T08:10:14.409Z,31.84
2023-06-19T08:11:17.241Z,31.76
2023-06-19T08:12:19.347Z,31.68
2023-06-19T08:13:21.438Z,31.61
2023-06-19T08:14:23.432Z,31.54
2023-06-19T08:15:25.408Z,31.47
2023-06-19T08:16:27.489Z,31.40
2023-06-19T08:17:29.979Z,31.36
2023-06-19T08:18:32.072Z,31.31
2023-06-19T08:19:34.402Z,31.25
2023-06-19T08:20:36.297Z,31.20
2023-06-19T08:21:38.549Z,31.15
2023-06-19T08:22:40.477Z,31.09
2023-06-19T08:23:44.823Z,31.05
2023-06-19T08:24:46.910Z,31.01
2023-06-19T08:25:49.023Z,30.96
2023-06-19T08:26:52.160Z,30.92
2023-06-19T08:27:54.307Z,30.89
2023-06-19T08:28:56.597Z,30.83
2023-06-19T08:29:58.581Z,30.81
2023-06-19T08:31:01.016Z,30.75
2023-06-19T08:32:03.202Z,30.71
2023-06-19T08:33:05.297Z,30.66
2023-06-19T08:34:10.428Z,30.61
2023-06-19T08:35:12.408Z,30.58
2023-06-19T08:36:14.244Z,30.53
2023-06-19T08:37:16.209Z,30.50
2023-06-19T08:38:18.101Z,30.46
2023-06-19T08:39:21.304Z,30.43
2023-06-19T08:40:23.813Z,30.40
2023-06-19T08:41:26.389Z,30.36
2023-06-19T08:42:28.897Z,30.33
2023-06-19T08:43:30.869Z,30.29
2023-06-19T08:44:37.481Z,30.26
2023-06-19T08:45:41.318Z,30.23
2023-06-19T08:46:43.305Z,30.20
2023-06-19T08:47:45.344Z,30.17
2023-06-19T08:48:47.739Z,30.14
2023-06-19T08:49:50.377Z,30.13
2023-06-19T08:50:52.765Z,30.10
2023-06-19T08:51:54.685Z,30.06
2023-06-19T08:52:57.433Z,30.04
2023-06-19T08:54:08.451Z,30.08
2023-06-19T08:55:11.755Z,30.01
2023-06-19T08:56:13.722Z,29.98
2023-06-19T08:57:16.176Z,29.92
2023-06-19T08:58:25.516Z,29.97
2023-06-19T08:59:29.504Z,29.89
2023-06-19T09:00:31.861Z,29.87
2023-06-19T09:01:35.920Z,29.84
2023-06-19T09:02:42.796Z,29.81
2023-06-19T09:03:47.539Z,29.82
2023-06-19T09:04:50.010Z,29.78
2023-06-19T09:05:52.483Z,29.75
2023-06-19T09:07:05.481Z,29.80
2023-06-19T09:08:16.901Z,29.78
2023-06-19T09:09:23.878Z,29.75
2023-06-19T09:10:26.148Z,29.68
2023-06-19T09:11:28.586Z,29.66
2023-06-19T09:12:30.532Z,29.63
2023-06-19T09:13:34.420Z,29.61
2023-06-19T09:14:41.403Z,29.61
2023-06-19T09:15:43.336Z,29.56
2023-06-19T09:16:45.211Z,29.56
2023-06-19T09:17:47.300Z,29.52
2023-06-19T09:18:49.747Z,29.49
2023-06-19T09:19:54.585Z,29.50
2023-06-19T09:20:56.929Z,29.49
2023-06-19T09:22:08.580Z,29.51
2023-06-19T09:23:14.742Z,29.48
2023-06-19T09:24:17.116Z,29.44
2023-06-19T09:25:19.362Z,29.42
2023-06-19T09:26:21.488Z,29.40
2023-06-19T09:27:24.175Z,29.41
2023-06-19T09:28:29.913Z,29.40
2023-06-19T09:29:31.842Z,29.38
2023-06-19T09:30:33.741Z,29.36
2023-06-19T09:31:35.919Z,29.34
2023-06-19T09:32:37.903Z,29.35
2023-06-19T09:33:41.437Z,29.32
2023-06-19T09:34:43.572Z,29.32
2023-06-19T09:35:45.826Z,29.30
2023-06-19T09:36:48.393Z,29.29
2023-06-19T09:37:53.544Z,29.28
2023-06-19T09:38:57.842Z,29.27
2023-06-19T09:40:12.501Z,29.28
2023-06-19T09:41:17.589Z,29.29
2023-06-19T09:42:28.857Z,29.29
2023-06-19T09:43:52.165Z,29.37
2023-06-19T09:45:01.137Z,29.28
2023-06-19T09:46:04.375Z,29.23
2023-06-19T09:47:19.401Z,29.28
2023-06-19T09:48:30.622Z,29.27
2023-06-19T09:49:36.670Z,29.22
2023-06-19T09:50:41.344Z,29.20
2023-06-19T09:51:44.665Z,29.17
2023-06-19T09:52:46.644Z,29.16
2023-06-19T09:53:50.602Z,29.15
2023-06-19T09:54:54.878Z,29.15
2023-06-19T09:55:57.263Z,29.13
2023-06-19T09:57:01.344Z,29.11
2023-06-19T09:58:04.835Z,29.11
2023-06-19T09:59:10.647Z,29.11
2023-06-19T10:00:16.346Z,29.10
2023-06-19T10:01:20.095Z,29.09
2023-06-19T10:02:24.204Z,29.09
2023-06-19T10:03:37.880Z,29.13
2023-06-19T10:04:51.222Z,29.15
2023-06-19T10:06:01.135Z,29.12
2023-06-19T10:07:03.124Z,29.07
2023-06-19T10:08:06.108Z,29.07
2023-06-19T10:09:11.306Z,29.05
2023-06-19T10:10:29.585Z,29.14
2023-06-19T10:11:52.434Z,29.16
2023-06-19T10:13:00.613Z,29.11
2023-06-19T10:14:08.960Z,29.08
2023-06-19T10:15:21.728Z,29.08
2023-06-19T10:16:25.862Z,29.04
2023-06-19T10:17:31.864Z,29.01
2023-06-19T10:18:47.356Z,29.07
2023-06-19T10:19:53.552Z,28.99
2023-06-19T10:20:56.717Z,28.98
2023-06-19T10:22:01.295Z,28.97
2023-06-19T10:23:19.391Z,28.97
2023-06-19T10:24:26.874Z,28.98
2023-06-19T10:25:36.486Z,28.99
2023-06-19T10:26:39.099Z,28.96
2023-06-19T10:27:42.521Z,28.94
2023-06-19T10:28:51.053Z,28.94
2023-06-19T10:30:12.765Z,28.93
2023-06-19T10:31:18.958Z,28.97
2023-06-19T10:32:22.328Z,28.93
2023-06-19T10:33:27.623Z,28.94
2023-06-19T10:34:37.272Z,28.96
2023-06-19T10:35:41.967Z,28.93
2023-06-19T10:36:43.959Z,28.90
2023-06-19T10:37:46.470Z,28.91
2023-06-19T10:38:48.786Z,28.91
2023-06-19T10:39:50.902Z,28.90
2023-06-19T10:40:53.221Z,28.88
2023-06-19T10:41:55.441Z,28.90
2023-06-19T10:42:57.441Z,28.91
2023-06-19T10:44:05.283Z,28.93
2023-06-19T10:45:14.101Z,28.95
2023-06-19T10:46:16.146Z,28.92
2023-06-19T10:47:18.178Z,28.91
2023-06-19T10:48:25.348Z,28.93
2023-06-19T10:49:27.326Z,28.92
2023-06-19T10:50:29.907Z,28.91
2023-06-19T10:51:35.331Z,28.90
2023-06-19T10:52:37.563Z,28.91
2023-06-19T10:53:39.500Z,28.91
2023-06-19T10:54:41.667Z,28.90
2023-06-19T10:55:43.668Z,28.91
2023-06-19T10:56:49.492Z,28.90
2023-06-19T10:57:52.153Z,28.93
2023-06-19T10:59:10.778Z,29.00
2023-06-19T11:00:26.503Z,29.01
2023-06-19T11:01:46.715Z,28.98
2023-06-19T11:02:48.734Z,28.95
2023-06-19T11:03:52.488Z,28.91
2023-06-19T11:04:58.300Z,28.93
2023-06-19T11:06:00.264Z,28.92
2023-06-19T11:07:06.632Z,28.93
2023-06-19T11:08:08.528Z,28.91
2023-06-19T11:09:12.969Z,28.90
2023-06-19T11:10:25.924Z,28.97
2023-06-19T11:11:48.781Z,29.04
2023-06-19T11:12:55.911Z,28.97
2023-06-19T11:13:57.806Z,28.91
2023-06-19T11:14:59.699Z,28.90
2023-06-19T11:16:02.104Z,28.91
2023-06-19T11:17:04.747Z,28.91
2023-06-19T11:18:06.726Z,28.91
2023-06-19T11:19:14.593Z,28.89
2023-06-19T11:20:16.619Z,28.92
2023-06-19T11:21:19.837Z,28.91
2023-06-19T11:22:22.049Z,28.93
2023-06-19T11:23:29.828Z,29.02
2023-06-19T11:24:31.764Z,29.05
2023-06-19T11:25:41.683Z,29.14
2023-06-19T11:26:51.119Z,29.19
2023-06-19T11:27:55.724Z,29.24
2023-06-19T11:28:57.678Z,29.30
2023-06-19T11:30:00.667Z,29.36
2023-06-19T11:31:04.605Z,29.42
2023-06-19T11:32:14.783Z,29.51
2023-06-19T11:33:23.650Z,29.60
2023-06-19T11:34:35.282Z,29.68
2023-06-19T11:35:37.383Z,29.68
2023-06-19T11:36:40.276Z,29.70
2023-06-19T11:37:44.895Z,29.73
2023-06-19T11:38:48.793Z,29.76
2023-06-19T11:39:53.273Z,29.78
2023-06-19T11:40:58.764Z,29.80
2023-06-19T11:42:01.371Z,29.81
2023-06-19T11:43:03.450Z,29.82
2023-06-19T11:44:10.192Z,29.83
2023-06-19T11:45:12.460Z,29.85
2023-06-19T11:46:14.942Z,29.86
2023-06-19T11:47:19.962Z,29.87
2023-06-19T11:48:27.019Z,29.89
2023-06-19T11:49:33.563Z,29.88
2023-06-19T11:50:36.009Z,29.89
2023-06-19T11:51:38.066Z,29.89
2023-06-19T11:52:40.977Z,29.88
2023-06-19T11:53:43.105Z,29.90
2023-06-19T11:54:45.298Z,29.90
2023-06-19T11:55:47.466Z,29.90
2023-06-19T11:56:49.445Z,29.89
2023-06-19T11:57:51.399Z,29.90
2023-06-19T11:58:53.482Z,29.89
2023-06-19T11:59:55.736Z,29.91
2023-06-19T12:00:57.826Z,29.91
2023-06-19T12:02:00.769Z,29.90
2023-06-19T12:03:03.562Z,29.90
2023-06-19T12:04:06.314Z,29.91
2023-06-19T12:05:09.338Z,29.90
2023-06-19T12:06:11.338Z,29.91
2023-06-19T12:07:13.363Z,29.90
2023-06-19T12:08:15.471Z,29.90
2023-06-19T12:09:17.467Z,29.91
2023-06-19T12:10:19.350Z,29.91
2023-06-19T12:11:21.387Z,29.91
2023-06-19T12:12:23.342Z,29.91
2023-06-19T12:13:25.202Z,29.93
2023-06-19T12:14:27.288Z,29.93
2023-06-19T12:15:29.284Z,29.93
2023-06-19T12:16:31.382Z,29.94
2023-06-19T12:17:34.220Z,29.95
2023-06-19T12:18:36.512Z,29.98
2023-06-19T12:19:38.709Z,29.97
2023-06-19T12:20:40.723Z,29.98
2023-06-19T12:21:43.234Z,30.00
2023-06-19T12:22:45.305Z,30.00
2023-06-19T12:23:47.451Z,30.02
2023-06-19T12:24:49.732Z,30.03
2023-06-19T12:25:51.690Z,30.05
2023-06-19T12:26:53.593Z,30.05
2023-06-19T12:27:55.936Z,30.06
2023-06-19T12:28:58.058Z,30.07
2023-06-19T12:30:00.142Z,30.07
2023-06-19T12:31:04.344Z,30.09
2023-06-19T12:32:07.162Z,30.08
2023-06-19T12:33:09.434Z,30.11
2023-06-19T12:34:28.800Z,30.10
2023-06-19T12:35:33.305Z,30.14
2023-06-19T12:36:35.344Z,30.12
2023-06-19T12:37:37.429Z,30.13
2023-06-19T12:38:40.505Z,30.12
2023-06-19T12:39:42.939Z,30.12
2023-06-19T12:40:45.186Z,30.13
2023-06-19T12:41:47.374Z,30.13
2023-06-19T12:42:51.493Z,30.13
2023-06-19T12:43:53.539Z,30.14
2023-06-19T12:44:55.624Z,30.12
2023-06-19T12:45:58.110Z,30.13
2023-06-19T12:47:01.457Z,30.13
2023-06-19T12:48:03.438Z,30.13
2023-06-19T12:49:05.506Z,30.13
2023-06-19T12:50:08.228Z,30.14
2023-06-19T12:51:10.268Z,30.14
2023-06-19T12:52:12.266Z,30.13
2023-06-19T12:53:14.196Z,30.15
2023-06-19T12:54:16.145Z,30.16
2023-06-19T12:55:18.434Z,30.15
2023-06-19T12:56:20.388Z,30.14
2023-06-19T12:57:22.631Z,30.15
2023-06-19T12:58:24.732Z,30.14
2023-06-19T12:59:26.820Z,30.12
2023-06-19T13:00:28.806Z,30.14
2023-06-19T13:01:30.702Z,30.14
2023-06-19T13:02:33.336Z,30.14
2023-06-19T13:03:35.657Z,30.14
2023-06-19T13:04:39.373Z,30.15
2023-06-19T13:05:41.451Z,30.15
2023-06-19T13:06:43.347Z,30.14
2023-06-19T13:07:45.200Z,30.14
2023-06-19T13:08:47.692Z,30.14
2023-06-19T13:09:49.871Z,30.08
2023-06-19T13:10:52.103Z,30.13
2023-06-19T13:11:54.006Z,30.15
2023-06-19T13:12:59.179Z,30.15
2023-06-19T13:14:04.692Z,29.93
2023-06-19T13:15:07.962Z,29.96
2023-06-19T13:16:13.073Z,30.09
2023-06-19T13:17:16.715Z,30.04
2023-06-19T13:18:20.164Z,29.92
2023-06-19T13:19:22.144Z,29.77
2023-06-19T13:20:24.206Z,29.69
2023-06-19T13:21:26.333Z,29.62
2023-06-19T13:22:28.612Z,29.57
2023-06-19T13:23:32.155Z,29.50
2023-06-19T13:24:34.179Z,29.41
2023-06-19T13:25:36.154Z,29.35
2023-06-19T13:26:38.384Z,29.27
2023-06-19T13:27:40.829Z,29.17
2023-06-19T13:28:42.838Z,29.09
2023-06-19T13:29:45.034Z,29.01
2023-06-19T13:30:47.678Z,28.93
2023-06-19T13:31:49.681Z,28.86
2023-06-19T13:32:51.661Z,28.78
2023-06-19T13:33:53.971Z,28.71
2023-06-19T13:34:56.436Z,28.62
2023-06-19T13:35:58.302Z,28.56
2023-06-19T13:37:00.218Z,28.50
2023-06-19T13:38:02.473Z,28.44